createdAt,value
2019-03-29T00:00:04.575Z,6.30
2019-03-29T00:02:37.567Z,6.83
2019-03-29T00:05:08.044Z,6.47
2019-03-29T00:07:39.785Z,6.47
2019-03-29T00:10:10.950Z,6.17
2019-03-29T00:12:41.355Z,6.65
2019-03-29T00:15:11.804Z,7.37
2019-03-29T00:17:42.239Z,6.65
2019-03-29T00:20:12.708Z,7.60
2019-03-29T00:22:43.146Z,7.80
2019-03-29T00:25:13.797Z,7.03
2019-03-29T00:27:44.241Z,7.75
2019-03-29T00:30:16.667Z,6.83
2019-03-29T00:32:47.015Z,7.55
2019-03-29T00:35:17.357Z,7.53
2019-03-29T00:37:53.784Z,6.80
2019-03-29T00:40:19.739Z,7.25
2019-03-29T00:42:50.074Z,7.50
2019-03-29T00:45:20.476Z,7.40
2019-03-29T00:47:50.827Z,7.78
2019-03-29T00:50:21.174Z,7.47
2019-03-29T00:52:51.594Z,8.03
2019-03-29T00:55:21.951Z,7.70
2019-03-29T00:57:52.363Z,8.03
2019-03-29T01:00:22.814Z,8.63
2019-03-29T01:02:53.230Z,8.90
2019-03-29T01:05:23.580Z,9.93
2019-03-29T01:08:06.959Z,10.05
2019-03-29T01:10:25.963Z,9.90
2019-03-29T01:12:56.363Z,11.22
2019-03-29T01:15:26.816Z,10.13
2019-03-29T01:17:57.212Z,10.30
2019-03-29T01:20:27.562Z,10.90
2019-03-29T01:22:58.018Z,10.38
2019-03-29T01:25:28.562Z,10.23
2019-03-29T01:27:58.990Z,9.78
2019-03-29T01:30:29.323Z,9.55
2019-03-29T01:32:59.745Z,9.83
2019-03-29T01:35:30.076Z,10.58
2019-03-29T01:38:00.502Z,9.73
2019-03-29T01:40:30.847Z,10.60
2019-03-29T01:43:01.274Z,10.28
2019-03-29T01:45:31.635Z,10.18
2019-03-29T01:48:02.072Z,10.48
2019-03-29T01:50:32.419Z,11.18
2019-03-29T01:53:04.054Z,10.70
2019-03-29T01:55:34.419Z,11.30
2019-03-29T01:58:05.122Z,11.15
2019-03-29T02:00:36.270Z,11.03
2019-03-29T02:03:07.097Z,12.30
2019-03-29T02:05:37.461Z,12.47
2019-03-29T02:08:07.860Z,12.40
2019-03-29T02:10:38.206Z,12.53
2019-03-29T02:13:08.627Z,12.07
2019-03-29T02:15:38.976Z,12.63
2019-03-29T02:18:09.391Z,12.68
2019-03-29T02:20:39.736Z,12.63
2019-03-29T02:23:10.267Z,13.13
2019-03-29T02:25:40.618Z,12.28
2019-03-29T02:28:11.026Z,12.37
2019-03-29T02:30:41.378Z,12.82
2019-03-29T02:33:11.812Z,12.90
2019-03-29T02:35:42.175Z,12.78
2019-03-29T02:38:12.591Z,14.07
2019-03-29T02:40:43.037Z,12.40
2019-03-29T02:43:13.645Z,12.15
2019-03-29T02:45:44.001Z,11.90
2019-03-29T02:48:14.462Z,12.18
2019-03-29T02:50:46.048Z,12.95
2019-03-29T02:53:16.463Z,13.70
2019-03-29T02:55:46.818Z,13.72
2019-03-29T02:58:17.247Z,12.50
2019-03-29T03:00:48.260Z,12.15
2019-03-29T03:03:19.124Z,12.65
2019-03-29T03:05:49.468Z,12.75
2019-03-29T03:08:19.872Z,12.13
2019-03-29T03:10:50.220Z,12.23
2019-03-29T03:13:20.628Z,11.88
2019-03-29T03:15:50.992Z,13.00
2019-03-29T03:18:21.392Z,12.73
2019-03-29T03:20:51.751Z,12.43
2019-03-29T03:23:22.176Z,12.37
2019-03-29T03:25:52.536Z,11.95
2019-03-29T03:28:22.978Z,12.98
2019-03-29T03:30:53.321Z,12.95
2019-03-29T03:33:23.729Z,13.18
2019-03-29T03:35:54.198Z,11.78
2019-03-29T03:38:24.618Z,12.33
2019-03-29T03:40:54.990Z,11.60
2019-03-29T03:43:25.411Z,12.25
2019-03-29T03:45:55.786Z,11.57
2019-03-29T03:48:26.199Z,11.73
2019-03-29T03:50:56.546Z,12.05
2019-03-29T03:53:26.968Z,13.18
2019-03-29T03:55:59.775Z,12.50
2019-03-29T03:58:31.303Z,12.82
2019-03-29T04:01:01.670Z,11.97
2019-03-29T04:03:32.165Z,11.50
2019-03-29T04:06:02.533Z,12.40
2019-03-29T04:08:32.960Z,11.25
2019-03-29T04:11:03.323Z,12.07
2019-03-29T04:13:33.748Z,11.90
2019-03-29T04:16:04.115Z,11.83
2019-03-29T04:18:34.632Z,12.43
2019-03-29T04:21:05.099Z,12.88
2019-03-29T04:23:35.518Z,12.82
2019-03-29T04:26:05.872Z,12.50
2019-03-29T04:28:36.295Z,12.05
2019-03-29T04:31:06.666Z,12.82
2019-03-29T04:33:37.093Z,12.58
2019-03-29T04:36:07.435Z,12.93
2019-03-29T04:38:37.985Z,12.40
2019-03-29T04:41:08.404Z,13.13
2019-03-29T04:43:38.811Z,12.75
2019-03-29T04:46:09.175Z,13.25
2019-03-29T04:48:39.594Z,13.18
2019-03-29T04:51:09.943Z,12.80
2019-03-29T04:53:40.447Z,12.43
2019-03-29T04:56:10.828Z,12.28
2019-03-29T04:58:41.244Z,12.55
2019-03-29T05:01:11.585Z,12.90
2019-03-29T05:03:42.002Z,12.50
2019-03-29T05:06:12.350Z,12.60
2019-03-29T05:08:42.771Z,12.73
2019-03-29T05:11:13.139Z,12.35
2019-03-29T05:13:43.573Z,12.25
2019-03-29T05:16:13.936Z,13.05
2019-03-29T05:18:44.348Z,13.90
2019-03-29T05:21:14.686Z,13.38
2019-03-29T05:23:45.118Z,13.62
2019-03-29T05:26:15.478Z,15.00
2019-03-29T05:28:47.099Z,11.15
2019-03-29T05:31:18.599Z,13.95
2019-03-29T05:33:49.098Z,15.50
2019-03-29T05:36:19.443Z,13.60
2019-03-29T05:38:49.871Z,14.20
2019-03-29T05:41:20.240Z,14.38
2019-03-29T05:43:50.644Z,14.40
2019-03-29T05:46:21.016Z,12.75
2019-03-29T05:48:51.440Z,13.00
2019-03-29T05:51:21.788Z,12.95
2019-03-29T05:53:52.215Z,12.35
2019-03-29T05:56:22.579Z,13.25
2019-03-29T05:58:52.975Z,11.70
2019-03-29T06:01:23.341Z,12.30
2019-03-29T06:03:53.748Z,12.20
2019-03-29T06:06:24.100Z,13.03
2019-03-29T06:08:54.502Z,16.42
2019-03-29T06:11:24.861Z,14.15
2019-03-29T06:13:55.274Z,12.80
2019-03-29T06:16:38.405Z,15.18
2019-03-29T06:18:57.737Z,12.65
2019-03-29T06:21:28.094Z,17.07
2019-03-29T06:23:58.549Z,17.23
2019-03-29T06:26:28.962Z,16.25
2019-03-29T06:28:59.454Z,13.88
2019-03-29T06:31:29.923Z,13.85
2019-03-29T06:34:00.342Z,13.50
2019-03-29T06:36:32.503Z,14.87
2019-03-29T06:39:04.831Z,15.10
2019-03-29T06:44:05.435Z,13.95
2019-03-29T06:46:35.807Z,13.55
2019-03-29T06:49:06.242Z,13.78
2019-03-29T06:51:36.590Z,13.55
2019-03-29T06:54:07.007Z,14.20
2019-03-29T06:56:37.426Z,14.35
2019-03-29T06:59:07.856Z,14.05
2019-03-29T07:01:38.364Z,14.10
2019-03-29T07:04:08.790Z,14.55
2019-03-29T07:06:39.162Z,14.18
2019-03-29T07:09:09.620Z,16.67
2019-03-29T07:11:40.128Z,14.40
2019-03-29T07:14:10.556Z,13.10
2019-03-29T07:16:40.984Z,13.03
2019-03-29T07:19:11.443Z,12.68
2019-03-29T07:21:43.067Z,13.43
2019-03-29T07:24:13.503Z,17.55
2019-03-29T07:26:43.913Z,15.95
2019-03-29T07:29:14.359Z,14.40
2019-03-29T07:31:44.774Z,11.60
2019-03-29T07:34:15.190Z,12.82
2019-03-29T07:36:45.607Z,12.20
2019-03-29T07:39:16.036Z,10.65
2019-03-29T07:41:46.437Z,10.95
2019-03-29T07:44:16.863Z,11.40
2019-03-29T07:46:47.282Z,13.28
2019-03-29T07:49:17.703Z,12.33
2019-03-29T07:51:48.131Z,11.30
2019-03-29T07:54:18.546Z,8.93
2019-03-29T07:56:48.943Z,9.98
2019-03-29T07:59:19.371Z,9.00
2019-03-29T08:01:49.790Z,10.10
2019-03-29T08:04:21.734Z,8.73
2019-03-29T08:06:52.383Z,8.53
2019-03-29T08:09:22.975Z,9.28
2019-03-29T08:11:55.236Z,7.85
2019-03-29T08:14:25.645Z,7.78
2019-03-29T08:16:56.000Z,7.62
2019-03-29T08:19:26.408Z,7.42
2019-03-29T08:21:57.923Z,8.20
2019-03-29T08:24:28.610Z,7.30
2019-03-29T08:26:58.962Z,7.70
2019-03-29T08:29:31.394Z,7.37
2019-03-29T08:32:01.357Z,8.13
2019-03-29T08:34:35.771Z,7.92
2019-03-29T08:37:05.044Z,8.45
2019-03-29T08:39:35.470Z,7.47
2019-03-29T08:42:05.844Z,9.13
2019-03-29T08:44:37.294Z,7.05
2019-03-29T08:47:07.738Z,8.13
2019-03-29T08:49:38.150Z,8.53
2019-03-29T08:52:08.587Z,7.17
2019-03-29T08:54:38.996Z,8.33
2019-03-29T08:57:10.803Z,7.47
2019-03-29T08:59:41.630Z,8.70
2019-03-29T09:02:12.143Z,8.58
2019-03-29T09:04:43.242Z,7.15
2019-03-29T09:07:13.636Z,7.37
2019-03-29T09:09:46.399Z,7.28
2019-03-29T09:12:16.223Z,7.80
2019-03-29T09:14:46.613Z,7.60
2019-03-29T09:17:17.041Z,8.08
2019-03-29T09:19:48.761Z,7.67
2019-03-29T09:22:19.167Z,8.43
2019-03-29T09:24:49.600Z,8.23
2019-03-29T09:27:20.032Z,7.15
2019-03-29T09:29:50.384Z,7.05
2019-03-29T09:32:20.796Z,7.03
2019-03-29T09:34:51.139Z,8.23
2019-03-29T09:37:21.555Z,7.70
2019-03-29T09:39:51.895Z,8.30
2019-03-29T09:42:28.773Z,8.43
2019-03-29T09:44:54.283Z,8.25
2019-03-29T09:47:24.716Z,8.60
2019-03-29T09:49:55.141Z,7.30
2019-03-29T09:52:25.648Z,7.10
2019-03-29T09:54:56.091Z,7.05
2019-03-29T09:57:37.200Z,6.83
2019-03-29T09:59:58.564Z,7.47
2019-03-29T10:02:30.763Z,6.80
2019-03-29T10:05:01.230Z,8.43
2019-03-29T10:07:33.044Z,6.58
2019-03-29T10:10:05.955Z,6.72
2019-03-29T10:12:43.651Z,6.33
2019-03-29T10:15:10.204Z,5.80
2019-03-29T10:17:40.596Z,7.17
2019-03-29T10:20:11.362Z,6.55
2019-03-29T10:22:41.795Z,7.37
2019-03-29T10:25:19.178Z,6.70
2019-03-29T10:27:44.187Z,6.85
2019-03-29T10:30:17.487Z,6.15
2019-03-29T10:32:47.904Z,6.35
2019-03-29T10:35:18.267Z,6.53
2019-03-29T10:37:48.687Z,6.03
2019-03-29T10:40:21.594Z,6.60
2019-03-29T10:42:57.837Z,5.95
2019-03-29T10:45:23.049Z,7.35
2019-03-29T10:47:53.474Z,6.20
2019-03-29T10:50:23.835Z,6.40
2019-03-29T10:52:54.246Z,7.22
2019-03-29T10:55:24.617Z,6.58
2019-03-29T10:57:56.240Z,6.22
2019-03-29T11:00:40.194Z,6.28
2019-03-29T11:03:10.718Z,5.85
2019-03-29T11:05:42.227Z,6.92
2019-03-29T11:08:12.646Z,6.72
2019-03-29T11:10:43.050Z,5.50
2019-03-29T11:13:14.377Z,6.17
2019-03-29T11:15:45.073Z,6.22
2019-03-29T11:18:15.471Z,5.97
2019-03-29T11:20:45.889Z,5.95
2019-03-29T11:23:16.284Z,5.78
2019-03-29T11:25:48.790Z,5.70
2019-03-29T11:28:19.700Z,6.33
2019-03-29T11:30:50.110Z,6.33
2019-03-29T11:33:20.521Z,7.17
2019-03-29T11:35:50.930Z,6.00
2019-03-29T11:38:21.437Z,7.78
2019-03-29T11:40:55.877Z,6.03
2019-03-29T11:43:38.942Z,6.58
2019-03-29T11:46:14.012Z,7.00
2019-03-29T11:48:47.267Z,6.80
2019-03-29T11:51:20.227Z,7.80
2019-03-29T11:53:51.453Z,7.20
2019-03-29T11:56:23.182Z,7.40
2019-03-29T11:58:54.707Z,6.93
2019-03-29T12:01:25.104Z,6.72
2019-03-29T12:03:55.547Z,8.25
2019-03-29T12:06:25.915Z,7.22
2019-03-29T12:08:57.172Z,6.65
2019-03-29T12:11:27.835Z,6.62
2019-03-29T12:13:58.255Z,7.05
2019-03-29T12:16:28.609Z,17.00
2019-03-29T12:18:59.120Z,8.45
2019-03-29T12:21:29.480Z,6.92
2019-03-29T12:23:59.902Z,6.78
2019-03-29T12:26:30.259Z,6.47
2019-03-29T12:29:00.701Z,7.40
2019-03-29T12:31:31.055Z,6.47
2019-03-29T12:34:01.454Z,7.50
2019-03-29T12:36:31.815Z,6.67
2019-03-29T12:39:02.229Z,6.83
2019-03-29T12:41:33.070Z,7.22
2019-03-29T12:44:03.486Z,6.55
2019-03-29T12:46:33.834Z,7.05
2019-03-29T12:49:04.358Z,6.17
2019-03-29T12:51:34.698Z,6.83
2019-03-29T12:54:05.604Z,6.58
2019-03-29T12:56:35.975Z,7.17
2019-03-29T12:59:06.397Z,7.10
2019-03-29T13:01:39.814Z,8.40
2019-03-29T13:04:09.872Z,7.05
2019-03-29T13:06:40.471Z,7.47
2019-03-29T13:09:10.936Z,6.72
2019-03-29T13:11:41.425Z,6.97
2019-03-29T13:14:11.836Z,7.35
2019-03-29T13:16:42.200Z,7.83
2019-03-29T13:19:12.631Z,7.75
2019-03-29T13:21:43.213Z,8.15
2019-03-29T13:24:16.028Z,7.70
2019-03-29T13:26:45.607Z,7.87
2019-03-29T13:29:16.024Z,7.90
2019-03-29T13:31:47.463Z,7.97
2019-03-29T13:34:17.916Z,7.87
2019-03-29T13:36:48.272Z,7.45
2019-03-29T13:39:18.700Z,6.95
2019-03-29T13:41:49.069Z,8.05
2019-03-29T13:44:23.942Z,7.85
2019-03-29T13:46:51.458Z,7.42
2019-03-29T13:49:21.865Z,7.78
2019-03-29T13:51:52.240Z,7.25
2019-03-29T13:54:22.660Z,7.80
2019-03-29T13:56:53.092Z,12.05
2019-03-29T13:59:23.501Z,7.78
2019-03-29T14:01:53.900Z,8.95
2019-03-29T14:04:24.311Z,7.53
2019-03-29T14:06:54.725Z,7.40
2019-03-29T14:09:25.149Z,7.78
2019-03-29T14:11:55.555Z,8.00
2019-03-29T14:14:37.624Z,7.67
2019-03-29T14:16:58.024Z,7.12
2019-03-29T14:19:28.442Z,6.55
2019-03-29T14:22:00.140Z,7.05
2019-03-29T14:24:30.531Z,6.65
2019-03-29T14:27:00.921Z,6.58
2019-03-29T14:29:31.352Z,6.95
2019-03-29T14:32:01.769Z,9.40
2019-03-29T14:34:32.156Z,6.55
2019-03-29T14:37:02.584Z,6.58
2019-03-29T14:39:32.989Z,7.33
2019-03-29T14:42:03.395Z,7.17
2019-03-29T14:44:33.755Z,7.30
2019-03-29T14:47:04.163Z,6.70
2019-03-29T14:49:34.522Z,6.40
2019-03-29T14:52:05.042Z,7.37
2019-03-29T14:54:35.408Z,7.33
2019-03-29T14:57:05.859Z,7.70
2019-03-29T14:59:36.280Z,8.53
2019-03-29T15:02:06.691Z,8.28
2019-03-29T15:04:37.110Z,7.45
2019-03-29T15:07:07.518Z,7.33
2019-03-29T15:09:37.936Z,10.53
2019-03-29T15:12:08.372Z,10.25
2019-03-29T15:14:38.781Z,7.95
2019-03-29T15:17:11.514Z,9.10
2019-03-29T15:19:41.924Z,8.18
2019-03-29T15:22:12.350Z,8.08
2019-03-29T15:24:42.767Z,8.83
2019-03-29T15:27:13.267Z,9.03
2019-03-29T15:29:43.694Z,9.38
2019-03-29T15:32:14.124Z,7.62
2019-03-29T15:34:44.517Z,7.25
2019-03-29T15:37:14.939Z,9.10
2019-03-29T15:39:45.348Z,8.43
2019-03-29T15:42:15.779Z,8.58
2019-03-29T15:44:46.120Z,9.18
2019-03-29T15:47:16.548Z,9.03
2019-03-29T15:49:55.935Z,11.33
2019-03-29T15:52:18.961Z,8.55
2019-03-29T15:54:49.326Z,8.75
2019-03-29T15:57:19.747Z,8.15
2019-03-29T15:59:50.109Z,8.38
2019-03-29T16:02:20.652Z,8.45
2019-03-29T16:04:51.061Z,9.15
2019-03-29T16:07:21.408Z,11.90
2019-03-29T16:09:51.839Z,8.48
2019-03-29T16:12:22.219Z,22.67
2019-03-29T16:14:52.646Z,9.33
2019-03-29T16:17:23.067Z,8.18
2019-03-29T16:19:53.467Z,8.80
2019-03-29T16:22:23.877Z,8.43
2019-03-29T16:24:54.311Z,9.35
2019-03-29T16:27:25.307Z,9.10
2019-03-29T16:29:56.160Z,8.90
2019-03-29T16:32:26.554Z,8.95
2019-03-29T16:34:56.990Z,9.75
2019-03-29T16:37:27.389Z,8.60
2019-03-29T16:39:57.796Z,10.63
2019-03-29T16:42:28.224Z,10.20
2019-03-29T16:44:58.636Z,9.63
2019-03-29T16:47:29.062Z,8.95
2019-03-29T16:49:59.492Z,14.05
2019-03-29T16:52:29.900Z,9.38
2019-03-29T16:55:13.181Z,9.28
2019-03-29T16:57:45.081Z,12.47
2019-03-29T17:00:16.516Z,10.13
2019-03-29T17:02:46.951Z,8.68
2019-03-29T17:05:22.973Z,9.18
2019-03-29T17:08:00.182Z,10.35
2019-03-29T17:10:37.235Z,9.33
2019-03-29T17:13:08.807Z,10.18
2019-03-29T17:15:39.161Z,8.80
2019-03-29T17:18:09.591Z,10.23
2019-03-29T17:20:39.965Z,9.60
2019-03-29T17:23:14.506Z,20.50
2019-03-29T17:25:45.548Z,16.55
2019-03-29T17:28:15.987Z,13.18
2019-03-29T17:30:50.903Z,13.08
2019-03-29T17:33:22.634Z,12.33
2019-03-29T17:35:53.203Z,12.90
2019-03-29T17:38:23.637Z,10.20
2019-03-29T17:40:54.035Z,12.53
2019-03-29T17:43:24.463Z,11.12
2019-03-29T17:45:54.835Z,44.83
2019-03-29T17:48:25.279Z,32.90
2019-03-29T17:50:55.649Z,24.43
2019-03-29T17:53:26.072Z,17.57
2019-03-29T17:55:56.451Z,17.73
2019-03-29T17:58:28.086Z,18.45
2019-03-29T18:00:58.439Z,14.18
2019-03-29T18:03:28.891Z,21.12
2019-03-29T18:05:59.344Z,16.23
2019-03-29T18:08:29.760Z,15.60
2019-03-29T18:11:00.178Z,15.30
2019-03-29T18:13:30.601Z,14.80
2019-03-29T18:16:01.036Z,13.60
2019-03-29T18:18:32.504Z,14.23
2019-03-29T18:21:02.917Z,14.53
2019-03-29T18:23:33.291Z,13.98
2019-03-29T18:26:03.727Z,14.33
2019-03-29T18:28:37.881Z,15.05
2019-03-29T18:31:07.846Z,15.15
2019-03-29T18:33:38.226Z,16.05
2019-03-29T18:36:08.760Z,14.73
2019-03-29T18:38:40.668Z,14.93
2019-03-29T18:41:11.094Z,14.63
2019-03-29T18:43:41.508Z,16.42
2019-03-29T18:46:11.939Z,15.13
2019-03-29T18:48:42.340Z,18.45
2019-03-29T18:51:12.755Z,18.87
2019-03-29T18:53:43.160Z,17.85
2019-03-29T18:56:13.584Z,20.40
2019-03-29T18:58:44.014Z,18.62
2019-03-29T19:01:14.446Z,18.62
2019-03-29T19:03:44.852Z,17.57
2019-03-29T19:06:15.288Z,17.50
2019-03-29T19:08:45.692Z,18.75
2019-03-29T19:11:16.128Z,21.82
2019-03-29T19:13:46.545Z,20.05
2019-03-29T19:16:16.960Z,20.30
2019-03-29T19:18:47.391Z,21.90
2019-03-29T19:21:17.807Z,22.32
2019-03-29T19:23:48.245Z,21.25
2019-03-29T19:26:18.759Z,21.85
2019-03-29T19:28:49.190Z,24.52
2019-03-29T19:31:20.300Z,24.10
2019-03-29T19:33:52.462Z,23.22
2019-03-29T19:36:22.895Z,21.68
2019-03-29T19:38:53.304Z,20.45
2019-03-29T19:41:23.723Z,19.95
2019-03-29T19:43:54.234Z,19.45
2019-03-29T19:46:25.046Z,20.15
2019-03-29T19:48:55.444Z,22.17
2019-03-29T19:51:25.860Z,22.60
2019-03-29T19:54:06.691Z,23.38
2019-03-29T19:56:28.352Z,25.48
2019-03-29T19:58:58.766Z,20.32
2019-03-29T20:01:29.172Z,20.85
2019-03-29T20:03:59.619Z,20.50
2019-03-29T20:06:30.023Z,20.70
2019-03-29T20:09:01.291Z,19.60
2019-03-29T20:11:33.407Z,19.17
2019-03-29T20:14:03.822Z,17.95
2019-03-29T20:16:34.232Z,20.35
2019-03-29T20:19:04.604Z,19.92
2019-03-29T20:21:35.050Z,19.00
2019-03-29T20:24:05.586Z,18.77
2019-03-29T20:26:36.108Z,20.60
2019-03-29T20:29:06.472Z,18.23
2019-03-29T20:31:36.899Z,19.65
2019-03-29T20:34:07.270Z,19.23
2019-03-29T20:36:37.629Z,19.62
2019-03-29T20:39:08.798Z,19.37
2019-03-29T20:41:39.448Z,18.60
2019-03-29T20:44:09.876Z,20.25
2019-03-29T20:46:40.249Z,20.40
2019-03-29T20:49:10.662Z,19.77
2019-03-29T20:51:41.004Z,20.80
2019-03-29T20:54:11.416Z,20.27
2019-03-29T20:56:41.780Z,19.10
2019-03-29T20:59:12.198Z,19.42
2019-03-29T21:01:42.659Z,19.42
2019-03-29T21:04:13.091Z,19.77
2019-03-29T21:06:43.435Z,18.50
2019-03-29T21:09:13.841Z,19.23
2019-03-29T21:11:44.264Z,18.90
2019-03-29T21:14:14.680Z,19.57
2019-03-29T21:16:45.091Z,21.62
2019-03-29T21:19:16.534Z,23.27
2019-03-29T21:21:46.952Z,22.17
2019-03-29T21:24:17.344Z,21.87
2019-03-29T21:26:47.760Z,22.02
2019-03-29T21:29:18.182Z,21.33
2019-03-29T21:31:48.594Z,20.68
2019-03-29T21:34:19.058Z,21.12
2019-03-29T21:36:49.503Z,20.57
2019-03-29T21:39:19.872Z,20.60
2019-03-29T21:41:50.459Z,20.48
2019-03-29T21:44:22.067Z,20.70
2019-03-29T21:46:52.484Z,19.25
2019-03-29T21:49:22.842Z,19.42
2019-03-29T21:51:53.262Z,20.52
2019-03-29T21:54:23.608Z,19.45
2019-03-29T21:56:54.020Z,20.05
2019-03-29T21:59:25.202Z,20.02
2019-03-29T22:01:56.088Z,13.30
2019-03-29T22:04:26.434Z,18.62
2019-03-29T22:06:56.906Z,19.50
2019-03-29T22:09:36.826Z,19.15
2019-03-29T22:11:59.311Z,18.67
2019-03-29T22:14:29.801Z,18.17
2019-03-29T22:17:00.221Z,19.32
2019-03-29T22:19:30.581Z,19.50
2019-03-29T22:22:01.004Z,19.07
2019-03-29T22:24:31.365Z,19.30
2019-03-29T22:27:01.777Z,19.27
2019-03-29T22:29:32.112Z,19.48
2019-03-29T22:32:02.729Z,20.00
2019-03-29T22:34:33.125Z,20.12
2019-03-29T22:37:03.537Z,19.40
2019-03-29T22:39:33.882Z,19.15
2019-03-29T22:42:04.295Z,20.25
2019-03-29T22:44:34.644Z,20.00
2019-03-29T22:47:05.075Z,19.57
2019-03-29T22:49:35.678Z,19.92
2019-03-29T22:52:06.118Z,20.15
2019-03-29T22:54:36.475Z,21.50
2019-03-29T22:57:06.871Z,20.85
2019-03-29T22:59:37.215Z,23.65
2019-03-29T23:02:07.726Z,22.02
2019-03-29T23:04:38.084Z,22.75
2019-03-29T23:07:08.491Z,21.00
2019-03-29T23:09:38.857Z,21.68
2019-03-29T23:12:09.333Z,21.20
2019-03-29T23:14:39.720Z,21.33
2019-03-29T23:17:10.124Z,21.50
2019-03-29T23:19:40.487Z,22.07
2019-03-29T23:22:10.916Z,22.15
2019-03-29T23:24:41.256Z,22.82
2019-03-29T23:27:11.772Z,23.73
2019-03-29T23:29:43.341Z,22.93
2019-03-29T23:32:13.736Z,21.23
2019-03-29T23:34:44.255Z,21.85
2019-03-29T23:37:14.664Z,22.90
2019-03-29T23:39:45.011Z,20.88
2019-03-29T23:42:16.732Z,21.93
2019-03-29T23:44:47.322Z,22.22
2019-03-29T23:47:17.728Z,22.65
2019-03-29T23:49:48.094Z,23.32
2019-03-29T23:52:18.522Z,24.20
2019-03-29T23:54:48.964Z,22.67
2019-03-29T23:57:19.488Z,22.65
2019-03-29T23:59:49.828Z,21.73
